sensor_id;sensor_type;location;lat;lon;timestamp;P1;durP1;ratioP1;P2;durP2;ratioP2
53145;SDS011;39042;53.150;5.898;2023-11-21T00:02:20;24.45;;;4.43;;
53145;SDS011;39042;53.150;5.898;2023-11-21T00:07:16;20.33;;;4.85;;
53145;SDS011;39042;53.150;5.898;2023-11-21T00:09:42;16.17;;;4.75;;
53145;SDS011;39042;53.150;5.898;2023-11-21T00:12:08;18.30;;;4.80;;
53145;SDS011;39042;53.150;5.898;2023-11-21T00:14:39;17.70;;;4.88;;
53145;SDS011;39042;53.150;5.898;2023-11-21T00:17:05;17.50;;;5.05;;
53145;SDS011;39042;53.150;5.898;2023-11-21T00:19:32;21.60;;;5.20;;
53145;SDS011;39042;53.150;5.898;2023-11-21T00:22:00;14.95;;;4.70;;
53145;SDS011;39042;53.150;5.898;2023-11-21T00:24:25;17.53;;;4.70;;
53145;SDS011;39042;53.150;5.898;2023-11-21T00:26:51;14.73;;;4.97;;
53145;SDS011;39042;53.150;5.898;2023-11-21T00:29:18;20.75;;;5.03;;
53145;SDS011;39042;53.150;5.898;2023-11-21T00:31:44;18.87;;;4.27;;
53145;SDS011;39042;53.150;5.898;2023-11-21T00:34:11;15.07;;;4.53;;
53145;SDS011;39042;53.150;5.898;2023-11-21T00:36:37;15.55;;;4.43;;
53145;SDS011;39042;53.150;5.898;2023-11-21T00:39:04;13.05;;;4.55;;
53145;SDS011;39042;53.150;5.898;2023-11-21T00:41:31;10.70;;;3.92;;
53145;SDS011;39042;53.150;5.898;2023-11-21T00:43:57;11.45;;;4.47;;
53145;SDS011;39042;53.150;5.898;2023-11-21T00:46:24;12.35;;;4.20;;
53145;SDS011;39042;53.150;5.898;2023-11-21T00:48:53;9.30;;;3.60;;
53145;SDS011;39042;53.150;5.898;2023-11-21T00:51:19;10.47;;;3.67;;
53145;SDS011;39042;53.150;5.898;2023-11-21T00:53:45;12.32;;;4.13;;
53145;SDS011;39042;53.150;5.898;2023-11-21T00:56:12;10.35;;;4.03;;
53145;SDS011;39042;53.150;5.898;2023-11-21T00:58:38;9.57;;;4.07;;
53145;SDS011;39042;53.150;5.898;2023-11-21T01:01:07;11.82;;;3.60;;
53145;SDS011;39042;53.150;5.898;2023-11-21T01:03:33;11.23;;;3.47;;
53145;SDS011;39042;53.150;5.898;2023-11-21T01:05:59;12.00;;;3.83;;
53145;SDS011;39042;53.150;5.898;2023-11-21T01:08:25;7.82;;;2.90;;
53145;SDS011;39042;53.150;5.898;2023-11-21T01:10:51;7.60;;;2.93;;
53145;SDS011;39042;53.150;5.898;2023-11-21T01:13:17;12.13;;;3.27;;
53145;SDS011;39042;53.150;5.898;2023-11-21T01:15:43;8.40;;;3.28;;
53145;SDS011;39042;53.150;5.898;2023-11-21T01:18:09;7.80;;;3.00;;
53145;SDS011;39042;53.150;5.898;2023-11-21T01:20:35;13.03;;;3.23;;
53145;SDS011;39042;53.150;5.898;2023-11-21T01:23:01;7.75;;;3.08;;
53145;SDS011;39042;53.150;5.898;2023-11-21T01:25:26;10.23;;;3.43;;
53145;SDS011;39042;53.150;5.898;2023-11-21T01:27:52;7.67;;;2.80;;
53145;SDS011;39042;53.150;5.898;2023-11-21T01:30:18;9.73;;;3.10;;
53145;SDS011;39042;53.150;5.898;2023-11-21T01:32:44;10.32;;;3.15;;
53145;SDS011;39042;53.150;5.898;2023-11-21T01:35:10;11.03;;;3.47;;
53145;SDS011;39042;53.150;5.898;2023-11-21T01:40:03;11.75;;;3.17;;
53145;SDS011;39042;53.150;5.898;2023-11-21T01:42:33;10.57;;;2.95;;
53145;SDS011;39042;53.150;5.898;2023-11-21T01:45:00;11.48;;;2.90;;
53145;SDS011;39042;53.150;5.898;2023-11-21T01:47:31;10.48;;;4.03;;
53145;SDS011;39042;53.150;5.898;2023-11-21T01:50:01;12.05;;;3.88;;
53145;SDS011;39042;53.150;5.898;2023-11-21T01:52:30;12.73;;;4.60;;
53145;SDS011;39042;53.150;5.898;2023-11-21T01:54:56;12.05;;;4.13;;
53145;SDS011;39042;53.150;5.898;2023-11-21T01:57:24;16.13;;;4.30;;
53145;SDS011;39042;53.150;5.898;2023-11-21T01:59:50;12.13;;;4.82;;
53145;SDS011;39042;53.150;5.898;2023-11-21T02:02:19;12.90;;;5.30;;
53145;SDS011;39042;53.150;5.898;2023-11-21T02:04:45;16.30;;;5.53;;
53145;SDS011;39042;53.150;5.898;2023-11-21T02:07:11;11.83;;;5.30;;
53145;SDS011;39042;53.150;5.898;2023-11-21T02:09:36;14.17;;;4.77;;
53145;SDS011;39042;53.150;5.898;2023-11-21T02:12:08;18.30;;;4.97;;
53145;SDS011;39042;53.150;5.898;2023-11-21T02:14:35;14.45;;;4.95;;
53145;SDS011;39042;53.150;5.898;2023-11-21T02:17:01;15.10;;;4.50;;
53145;SDS011;39042;53.150;5.898;2023-11-21T02:19:30;16.70;;;4.68;;
53145;SDS011;39042;53.150;5.898;2023-11-21T02:21:57;12.60;;;4.03;;
53145;SDS011;39042;53.150;5.898;2023-11-21T02:24:28;13.95;;;4.25;;
53145;SDS011;39042;53.150;5.898;2023-11-21T02:26:54;13.60;;;4.17;;
53145;SDS011;39042;53.150;5.898;2023-11-21T02:29:21;16.80;;;4.30;;
53145;SDS011;39042;53.150;5.898;2023-11-21T02:31:47;11.63;;;3.38;;
53145;SDS011;39042;53.150;5.898;2023-11-21T02:34:15;13.90;;;3.58;;
53145;SDS011;39042;53.150;5.898;2023-11-21T02:36:45;18.42;;;3.65;;
53145;SDS011;39042;53.150;5.898;2023-11-21T02:39:12;13.10;;;3.70;;
53145;SDS011;39042;53.150;5.898;2023-11-21T02:41:38;11.95;;;3.97;;
53145;SDS011;39042;53.150;5.898;2023-11-21T02:44:05;9.57;;;3.85;;
53145;SDS011;39042;53.150;5.898;2023-11-21T02:46:35;10.95;;;3.92;;
53145;SDS011;39042;53.150;5.898;2023-11-21T02:49:05;11.93;;;4.55;;
53145;SDS011;39042;53.150;5.898;2023-11-21T02:51:32;10.50;;;3.70;;
53145;SDS011;39042;53.150;5.898;2023-11-21T02:53:58;13.13;;;3.35;;
53145;SDS011;39042;53.150;5.898;2023-11-21T02:56:27;14.80;;;3.78;;
53145;SDS011;39042;53.150;5.898;2023-11-21T02:58:55;11.40;;;3.17;;
53145;SDS011;39042;53.150;5.898;2023-11-21T03:01:21;10.27;;;2.88;;
53145;SDS011;39042;53.150;5.898;2023-11-21T03:03:49;13.57;;;3.03;;
53145;SDS011;39042;53.150;5.898;2023-11-21T03:06:16;8.30;;;2.17;;
53145;SDS011;39042;53.150;5.898;2023-11-21T03:08:46;10.40;;;2.03;;
53145;SDS011;39042;53.150;5.898;2023-11-21T03:11:12;9.43;;;2.63;;
53145;SDS011;39042;53.150;5.898;2023-11-21T03:13:38;7.22;;;2.22;;
53145;SDS011;39042;53.150;5.898;2023-11-21T03:16:07;5.43;;;1.80;;
53145;SDS011;39042;53.150;5.898;2023-11-21T03:18:39;4.78;;;2.03;;
53145;SDS011;39042;53.150;5.898;2023-11-21T03:21:05;5.90;;;2.25;;
53145;SDS011;39042;53.150;5.898;2023-11-21T03:23:34;7.97;;;2.28;;
53145;SDS011;39042;53.150;5.898;2023-11-21T03:26:02;6.38;;;2.30;;
53145;SDS011;39042;53.150;5.898;2023-11-21T03:28:29;8.55;;;2.33;;
53145;SDS011;39042;53.150;5.898;2023-11-21T03:30:57;8.40;;;2.90;;
53145;SDS011;39042;53.150;5.898;2023-11-21T03:33:23;12.50;;;3.00;;
53145;SDS011;39042;53.150;5.898;2023-11-21T03:35:50;12.75;;;3.38;;
53145;SDS011;39042;53.150;5.898;2023-11-21T03:38:18;8.50;;;2.90;;
53145;SDS011;39042;53.150;5.898;2023-11-21T03:40:44;9.13;;;2.92;;
53145;SDS011;39042;53.150;5.898;2023-11-21T03:43:10;6.93;;;2.90;;
53145;SDS011;39042;53.150;5.898;2023-11-21T03:45:36;11.33;;;3.37;;
53145;SDS011;39042;53.150;5.898;2023-11-21T03:48:02;13.48;;;3.60;;
53145;SDS011;39042;53.150;5.898;2023-11-21T03:50:28;11.20;;;3.63;;
53145;SDS011;39042;53.150;5.898;2023-11-21T03:52:54;9.05;;;3.22;;
53145;SDS011;39042;53.150;5.898;2023-11-21T03:55:20;10.37;;;4.37;;
53145;SDS011;39042;53.150;5.898;2023-11-21T03:57:46;12.97;;;4.90;;
53145;SDS011;39042;53.150;5.898;2023-11-21T04:00:12;11.83;;;3.97;;
53145;SDS011;39042;53.150;5.898;2023-11-21T04:02:38;13.98;;;4.97;;
53145;SDS011;39042;53.150;5.898;2023-11-21T04:05:04;11.30;;;4.25;;
53145;SDS011;39042;53.150;5.898;2023-11-21T04:07:32;11.93;;;4.38;;
53145;SDS011;39042;53.150;5.898;2023-11-21T04:09:59;9.90;;;4.70;;
53145;SDS011;39042;53.150;5.898;2023-11-21T04:12:25;10.23;;;4.53;;
53145;SDS011;39042;53.150;5.898;2023-11-21T04:14:50;10.00;;;4.17;;
53145;SDS011;39042;53.150;5.898;2023-11-21T04:17:19;9.50;;;3.60;;
53145;SDS011;39042;53.150;5.898;2023-11-21T04:19:46;13.23;;;5.05;;
53145;SDS011;39042;53.150;5.898;2023-11-21T04:22:12;12.20;;;5.30;;
53145;SDS011;39042;53.150;5.898;2023-11-21T04:24:38;19.23;;;6.88;;
53145;SDS011;39042;53.150;5.898;2023-11-21T04:27:03;19.95;;;6.30;;
53145;SDS011;39042;53.150;5.898;2023-11-21T04:29:29;18.27;;;6.32;;
53145;SDS011;39042;53.150;5.898;2023-11-21T04:31:55;18.75;;;6.90;;
53145;SDS011;39042;53.150;5.898;2023-11-21T04:34:21;18.70;;;5.67;;
53145;SDS011;39042;53.150;5.898;2023-11-21T04:36:47;14.80;;;6.20;;
53145;SDS011;39042;53.150;5.898;2023-11-21T04:39:13;17.90;;;5.97;;
53145;SDS011;39042;53.150;5.898;2023-11-21T04:41:38;14.80;;;6.17;;
53145;SDS011;39042;53.150;5.898;2023-11-21T04:44:07;16.77;;;6.80;;
53145;SDS011;39042;53.150;5.898;2023-11-21T04:46:33;19.25;;;6.38;;
53145;SDS011;39042;53.150;5.898;2023-11-21T04:48:59;17.93;;;7.00;;
53145;SDS011;39042;53.150;5.898;2023-11-21T04:51:25;16.63;;;6.90;;
53145;SDS011;39042;53.150;5.898;2023-11-21T04:53:50;18.17;;;7.23;;
53145;SDS011;39042;53.150;5.898;2023-11-21T04:56:16;22.13;;;8.07;;
53145;SDS011;39042;53.150;5.898;2023-11-21T04:58:42;25.70;;;8.87;;
53145;SDS011;39042;53.150;5.898;2023-11-21T05:01:08;29.03;;;10.23;;
53145;SDS011;39042;53.150;5.898;2023-11-21T05:03:34;28.43;;;10.00;;
53145;SDS011;39042;53.150;5.898;2023-11-21T05:06:00;25.95;;;8.93;;
53145;SDS011;39042;53.150;5.898;2023-11-21T05:08:26;22.90;;;9.10;;
53145;SDS011;39042;53.150;5.898;2023-11-21T05:10:52;29.40;;;9.48;;
53145;SDS011;39042;53.150;5.898;2023-11-21T05:13:18;22.92;;;9.07;;
53145;SDS011;39042;53.150;5.898;2023-11-21T05:18:11;25.42;;;7.65;;
53145;SDS011;39042;53.150;5.898;2023-11-21T05:20:39;23.85;;;8.40;;
53145;SDS011;39042;53.150;5.898;2023-11-21T05:23:06;21.67;;;8.43;;
53145;SDS011;39042;53.150;5.898;2023-11-21T05:25:33;22.60;;;7.50;;
53145;SDS011;39042;53.150;5.898;2023-11-21T05:27:59;18.88;;;7.68;;
53145;SDS011;39042;53.150;5.898;2023-11-21T05:30:26;22.67;;;7.70;;
53145;SDS011;39042;53.150;5.898;2023-11-21T05:32:53;22.50;;;7.85;;
53145;SDS011;39042;53.150;5.898;2023-11-21T05:35:19;20.90;;;7.43;;
53145;SDS011;39042;53.150;5.898;2023-11-21T05:37:47;27.80;;;9.37;;
53145;SDS011;39042;53.150;5.898;2023-11-21T05:40:13;28.38;;;8.90;;
53145;SDS011;39042;53.150;5.898;2023-11-21T05:42:40;26.27;;;9.13;;
53145;SDS011;39042;53.150;5.898;2023-11-21T05:45:06;35.22;;;11.48;;
53145;SDS011;39042;53.150;5.898;2023-11-21T05:47:42;30.83;;;10.85;;
53145;SDS011;39042;53.150;5.898;2023-11-21T05:50:11;32.00;;;11.05;;
53145;SDS011;39042;53.150;5.898;2023-11-21T05:52:42;45.85;;;12.55;;
53145;SDS011;39042;53.150;5.898;2023-11-21T05:55:09;34.95;;;12.55;;
53145;SDS011;39042;53.150;5.898;2023-11-21T05:57:38;35.25;;;12.13;;
53145;SDS011;39042;53.150;5.898;2023-11-21T06:00:05;41.95;;;13.82;;
53145;SDS011;39042;53.150;5.898;2023-11-21T06:02:53;32.67;;;11.75;;
53145;SDS011;39042;53.150;5.898;2023-11-21T06:05:20;30.50;;;11.33;;
53145;SDS011;39042;53.150;5.898;2023-11-21T06:07:49;25.17;;;8.73;;
53145;SDS011;39042;53.150;5.898;2023-11-21T06:10:16;27.52;;;9.38;;
53145;SDS011;39042;53.150;5.898;2023-11-21T06:12:44;24.38;;;9.18;;
53145;SDS011;39042;53.150;5.898;2023-11-21T06:15:10;24.67;;;8.27;;
53145;SDS011;39042;53.150;5.898;2023-11-21T06:17:40;25.40;;;8.10;;
53145;SDS011;39042;53.150;5.898;2023-11-21T06:20:07;23.52;;;8.18;;
53145;SDS011;39042;53.150;5.898;2023-11-21T06:22:36;23.60;;;8.05;;
53145;SDS011;39042;53.150;5.898;2023-11-21T06:25:02;21.20;;;8.30;;
53145;SDS011;39042;53.150;5.898;2023-11-21T06:27:40;25.05;;;8.93;;
53145;SDS011;39042;53.150;5.898;2023-11-21T06:30:10;26.98;;;8.35;;
53145;SDS011;39042;53.150;5.898;2023-11-21T06:32:37;22.83;;;8.43;;
53145;SDS011;39042;53.150;5.898;2023-11-21T06:35:05;24.08;;;8.23;;
53145;SDS011;39042;53.150;5.898;2023-11-21T06:37:32;24.80;;;8.52;;
53145;SDS011;39042;53.150;5.898;2023-11-21T06:39:58;25.83;;;8.70;;
53145;SDS011;39042;53.150;5.898;2023-11-21T06:42:25;19.42;;;7.60;;
53145;SDS011;39042;53.150;5.898;2023-11-21T06:44:51;25.25;;;9.50;;
53145;SDS011;39042;53.150;5.898;2023-11-21T06:47:19;24.30;;;9.35;;
53145;SDS011;39042;53.150;5.898;2023-11-21T06:49:45;28.55;;;11.73;;
53145;SDS011;39042;53.150;5.898;2023-11-21T06:52:14;33.42;;;11.60;;
53145;SDS011;39042;53.150;5.898;2023-11-21T06:54:40;38.83;;;11.77;;
53145;SDS011;39042;53.150;5.898;2023-11-21T06:57:06;38.00;;;13.37;;
53145;SDS011;39042;53.150;5.898;2023-11-21T06:59:32;43.85;;;14.32;;
53145;SDS011;39042;53.150;5.898;2023-11-21T07:01:59;40.08;;;14.20;;
53145;SDS011;39042;53.150;5.898;2023-11-21T07:04:24;42.97;;;14.90;;
53145;SDS011;39042;53.150;5.898;2023-11-21T07:06:53;48.35;;;14.15;;
53145;SDS011;39042;53.150;5.898;2023-11-21T07:09:19;43.72;;;16.23;;
53145;SDS011;39042;53.150;5.898;2023-11-21T07:11:50;42.80;;;14.02;;
53145;SDS011;39042;53.150;5.898;2023-11-21T07:14:16;47.83;;;15.57;;
53145;SDS011;39042;53.150;5.898;2023-11-21T07:16:45;41.70;;;14.18;;
53145;SDS011;39042;53.150;5.898;2023-11-21T07:19:11;45.25;;;14.93;;
53145;SDS011;39042;53.150;5.898;2023-11-21T07:21:37;44.85;;;14.65;;
53145;SDS011;39042;53.150;5.898;2023-11-21T07:24:04;39.88;;;13.20;;
53145;SDS011;39042;53.150;5.898;2023-11-21T07:26:31;37.80;;;14.20;;
53145;SDS011;39042;53.150;5.898;2023-11-21T07:29:04;40.65;;;12.82;;
53145;SDS011;39042;53.150;5.898;2023-11-21T07:31:31;41.35;;;13.50;;
53145;SDS011;39042;53.150;5.898;2023-11-21T07:33:59;38.20;;;13.60;;
53145;SDS011;39042;53.150;5.898;2023-11-21T07:36:26;36.13;;;12.80;;
53145;SDS011;39042;53.150;5.898;2023-11-21T07:38:52;33.92;;;13.82;;
53145;SDS011;39042;53.150;5.898;2023-11-21T07:41:18;31.40;;;12.60;;
53145;SDS011;39042;53.150;5.898;2023-11-21T07:43:44;29.63;;;13.27;;
53145;SDS011;39042;53.150;5.898;2023-11-21T07:46:11;26.40;;;12.48;;
53145;SDS011;39042;53.150;5.898;2023-11-21T07:48:40;26.05;;;11.85;;
53145;SDS011;39042;53.150;5.898;2023-11-21T07:51:07;24.00;;;11.43;;
53145;SDS011;39042;53.150;5.898;2023-11-21T07:53:34;22.27;;;11.40;;
53145;SDS011;39042;53.150;5.898;2023-11-21T07:56:03;19.92;;;9.55;;
53145;SDS011;39042;53.150;5.898;2023-11-21T07:58:34;18.77;;;9.90;;
53145;SDS011;39042;53.150;5.898;2023-11-21T08:03:27;18.33;;;9.20;;
53145;SDS011;39042;53.150;5.898;2023-11-21T08:05:55;17.08;;;9.00;;
53145;SDS011;39042;53.150;5.898;2023-11-21T08:08:25;14.90;;;7.88;;
53145;SDS011;39042;53.150;5.898;2023-11-21T08:10:51;17.65;;;7.90;;
53145;SDS011;39042;53.150;5.898;2023-11-21T08:13:26;17.40;;;8.95;;
53145;SDS011;39042;53.150;5.898;2023-11-21T08:15:56;19.35;;;9.02;;
53145;SDS011;39042;53.150;5.898;2023-11-21T08:18:27;16.98;;;8.82;;
53145;SDS011;39042;53.150;5.898;2023-11-21T08:20:54;19.75;;;8.38;;
53145;SDS011;39042;53.150;5.898;2023-11-21T08:23:20;16.67;;;8.70;;
53145;SDS011;39042;53.150;5.898;2023-11-21T08:25:50;17.25;;;9.15;;
53145;SDS011;39042;53.150;5.898;2023-11-21T08:28:16;12.68;;;6.13;;
53145;SDS011;39042;53.150;5.898;2023-11-21T08:30:42;14.10;;;6.63;;
53145;SDS011;39042;53.150;5.898;2023-11-21T08:35:36;16.55;;;8.30;;
53145;SDS011;39042;53.150;5.898;2023-11-21T08:38:02;15.73;;;8.63;;
53145;SDS011;39042;53.150;5.898;2023-11-21T08:40:28;11.98;;;6.45;;
53145;SDS011;39042;53.150;5.898;2023-11-21T08:42:55;14.70;;;8.15;;
53145;SDS011;39042;53.150;5.898;2023-11-21T08:45:21;16.93;;;8.60;;
53145;SDS011;39042;53.150;5.898;2023-11-21T08:47:47;17.30;;;8.60;;
53145;SDS011;39042;53.150;5.898;2023-11-21T08:50:14;18.20;;;8.43;;
53145;SDS011;39042;53.150;5.898;2023-11-21T08:52:40;20.25;;;10.10;;
53145;SDS011;39042;53.150;5.898;2023-11-21T08:55:10;17.50;;;8.82;;
53145;SDS011;39042;53.150;5.898;2023-11-21T08:57:40;17.98;;;9.32;;
53145;SDS011;39042;53.150;5.898;2023-11-21T09:00:09;17.17;;;8.65;;
53145;SDS011;39042;53.150;5.898;2023-11-21T09:02:42;18.10;;;9.05;;
53145;SDS011;39042;53.150;5.898;2023-11-21T09:05:09;19.67;;;10.80;;
53145;SDS011;39042;53.150;5.898;2023-11-21T09:07:39;18.40;;;10.50;;
53145;SDS011;39042;53.150;5.898;2023-11-21T09:10:06;23.52;;;11.35;;
53145;SDS011;39042;53.150;5.898;2023-11-21T09:12:37;21.63;;;10.95;;
53145;SDS011;39042;53.150;5.898;2023-11-21T09:15:07;21.75;;;10.90;;
53145;SDS011;39042;53.150;5.898;2023-11-21T09:17:35;23.92;;;12.18;;
53145;SDS011;39042;53.150;5.898;2023-11-21T09:20:01;20.52;;;11.07;;
53145;SDS011;39042;53.150;5.898;2023-11-21T09:22:30;20.80;;;11.27;;
53145;SDS011;39042;53.150;5.898;2023-11-21T09:24:57;21.35;;;10.70;;
53145;SDS011;39042;53.150;5.898;2023-11-21T09:27:23;22.53;;;11.40;;
53145;SDS011;39042;53.150;5.898;2023-11-21T09:29:49;19.40;;;10.75;;
53145;SDS011;39042;53.150;5.898;2023-11-21T09:32:14;24.67;;;11.93;;
53145;SDS011;39042;53.150;5.898;2023-11-21T09:34:41;21.63;;;11.18;;
53145;SDS011;39042;53.150;5.898;2023-11-21T09:37:07;20.00;;;10.53;;
53145;SDS011;39042;53.150;5.898;2023-11-21T09:39:34;20.10;;;10.45;;
53145;SDS011;39042;53.150;5.898;2023-11-21T09:42:13;14.68;;;7.63;;
53145;SDS011;39042;53.150;5.898;2023-11-21T09:44:46;15.70;;;7.75;;
53145;SDS011;39042;53.150;5.898;2023-11-21T09:47:24;19.98;;;11.23;;
53145;SDS011;39042;53.150;5.898;2023-11-21T09:49:49;20.67;;;11.53;;
53145;SDS011;39042;53.150;5.898;2023-11-21T09:52:23;21.50;;;12.15;;
53145;SDS011;39042;53.150;5.898;2023-11-21T09:54:51;21.52;;;11.25;;
53145;SDS011;39042;53.150;5.898;2023-11-21T09:57:24;17.60;;;9.85;;
53145;SDS011;39042;53.150;5.898;2023-11-21T10:29:07;14.20;;;7.93;;
53145;SDS011;39042;53.150;5.898;2023-11-21T10:43:40;12.82;;;8.52;;
53145;SDS011;39042;53.150;5.898;2023-11-21T10:54:25;15.77;;;9.55;;
53145;SDS011;39042;53.150;5.898;2023-11-21T11:16:58;14.43;;;9.30;;
53145;SDS011;39042;53.150;5.898;2023-11-21T11:20:43;11.98;;;8.73;;
53145;SDS011;39042;53.150;5.898;2023-11-21T11:35:57;10.77;;;6.65;;
53145;SDS011;39042;53.150;5.898;2023-11-21T11:39:28;10.70;;;6.43;;
53145;SDS011;39042;53.150;5.898;2023-11-21T11:43:12;9.82;;;6.38;;
53145;SDS011;39042;53.150;5.898;2023-11-21T11:46:18;9.45;;;5.53;;
53145;SDS011;39042;53.150;5.898;2023-11-21T11:52:36;12.82;;;5.80;;
53145;SDS011;39042;53.150;5.898;2023-11-21T11:55:42;12.15;;;6.55;;
53145;SDS011;39042;53.150;5.898;2023-11-21T11:59:21;8.93;;;5.30;;
53145;SDS011;39042;53.150;5.898;2023-11-21T12:01:56;6.95;;;5.00;;
53145;SDS011;39042;53.150;5.898;2023-11-21T12:27:06;9.20;;;4.88;;
53145;SDS011;39042;53.150;5.898;2023-11-21T12:30:51;8.52;;;4.70;;
53145;SDS011;39042;53.150;5.898;2023-11-21T12:37:48;7.60;;;4.85;;
53145;SDS011;39042;53.150;5.898;2023-11-21T13:13:47;7.40;;;4.50;;
53145;SDS011;39042;53.150;5.898;2023-11-21T13:16:18;7.07;;;4.07;;
53145;SDS011;39042;53.150;5.898;2023-11-21T13:18:45;8.10;;;4.25;;
53145;SDS011;39042;53.150;5.898;2023-11-21T13:21:11;4.73;;;3.00;;
53145;SDS011;39042;53.150;5.898;2023-11-21T13:23:42;5.55;;;4.00;;
53145;SDS011;39042;53.150;5.898;2023-11-21T13:26:10;7.88;;;4.30;;
53145;SDS011;39042;53.150;5.898;2023-11-21T13:28:37;6.13;;;3.72;;
53145;SDS011;39042;53.150;5.898;2023-11-21T13:31:03;6.18;;;4.38;;
53145;SDS011;39042;53.150;5.898;2023-11-21T13:33:49;6.70;;;4.05;;
53145;SDS011;39042;53.150;5.898;2023-11-21T13:36:21;6.97;;;4.28;;
53145;SDS011;39042;53.150;5.898;2023-11-21T13:38:49;6.75;;;4.00;;
53145;SDS011;39042;53.150;5.898;2023-11-21T13:41:15;6.82;;;4.30;;
53145;SDS011;39042;53.150;5.898;2023-11-21T13:43:43;9.15;;;4.63;;
53145;SDS011;39042;53.150;5.898;2023-11-21T13:46:15;9.00;;;4.43;;
53145;SDS011;39042;53.150;5.898;2023-11-21T13:48:48;7.75;;;4.70;;
53145;SDS011;39042;53.150;5.898;2023-11-21T13:51:21;6.13;;;4.55;;
53145;SDS011;39042;53.150;5.898;2023-11-21T13:53:55;7.55;;;4.57;;
53145;SDS011;39042;53.150;5.898;2023-11-21T13:56:21;9.30;;;4.73;;
53145;SDS011;39042;53.150;5.898;2023-11-21T13:58:53;8.07;;;4.50;;
53145;SDS011;39042;53.150;5.898;2023-11-21T14:01:21;8.32;;;4.57;;
53145;SDS011;39042;53.150;5.898;2023-11-21T14:03:55;8.68;;;5.07;;
53145;SDS011;39042;53.150;5.898;2023-11-21T14:06:44;9.13;;;5.25;;
53145;SDS011;39042;53.150;5.898;2023-11-21T14:09:18;10.15;;;5.20;;
53145;SDS011;39042;53.150;5.898;2023-11-21T14:11:52;8.82;;;5.63;;
53145;SDS011;39042;53.150;5.898;2023-11-21T14:14:19;8.70;;;5.45;;
53145;SDS011;39042;53.150;5.898;2023-11-21T14:16:46;11.38;;;5.15;;
53145;SDS011;39042;53.150;5.898;2023-11-21T14:19:12;8.68;;;5.72;;
53145;SDS011;39042;53.150;5.898;2023-11-21T14:21:45;13.35;;;6.65;;
53145;SDS011;39042;53.150;5.898;2023-11-21T14:24:11;7.90;;;4.95;;
53145;SDS011;39042;53.150;5.898;2023-11-21T14:26:43;8.57;;;5.22;;
53145;SDS011;39042;53.150;5.898;2023-11-21T14:29:12;11.45;;;5.75;;
53145;SDS011;39042;53.150;5.898;2023-11-21T14:31:45;10.82;;;5.47;;
53145;SDS011;39042;53.150;5.898;2023-11-21T14:34:11;9.05;;;5.38;;
53145;SDS011;39042;53.150;5.898;2023-11-21T14:36:38;9.93;;;5.38;;
53145;SDS011;39042;53.150;5.898;2023-11-21T14:39:05;8.57;;;5.25;;
53145;SDS011;39042;53.150;5.898;2023-11-21T14:41:34;9.43;;;5.32;;
53145;SDS011;39042;53.150;5.898;2023-11-21T14:44:02;9.18;;;4.65;;
53145;SDS011;39042;53.150;5.898;2023-11-21T14:48:55;9.55;;;5.30;;
53145;SDS011;39042;53.150;5.898;2023-11-21T14:51:27;12.30;;;6.30;;
53145;SDS011;39042;53.150;5.898;2023-11-21T14:53:57;10.68;;;5.53;;
53145;SDS011;39042;53.150;5.898;2023-11-21T14:56:34;10.00;;;5.45;;
53145;SDS011;39042;53.150;5.898;2023-11-21T14:59:02;7.80;;;4.95;;
53145;SDS011;39042;53.150;5.898;2023-11-21T15:01:34;8.32;;;4.80;;
53145;SDS011;39042;53.150;5.898;2023-11-21T15:04:26;8.70;;;5.60;;
53145;SDS011;39042;53.150;5.898;2023-11-21T15:07:05;8.20;;;5.57;;
53145;SDS011;39042;53.150;5.898;2023-11-21T15:09:31;9.13;;;5.50;;
53145;SDS011;39042;53.150;5.898;2023-11-21T15:11:58;9.75;;;5.60;;
53145;SDS011;39042;53.150;5.898;2023-11-21T15:14:34;9.98;;;6.82;;
53145;SDS011;39042;53.150;5.898;2023-11-21T15:17:02;10.73;;;6.43;;
53145;SDS011;39042;53.150;5.898;2023-11-21T15:21:56;7.38;;;4.68;;
53145;SDS011;39042;53.150;5.898;2023-11-21T15:24:23;8.70;;;4.82;;
53145;SDS011;39042;53.150;5.898;2023-11-21T15:26:52;8.80;;;4.07;;
53145;SDS011;39042;53.150;5.898;2023-11-21T15:29:19;7.97;;;3.53;;
53145;SDS011;39042;53.150;5.898;2023-11-21T15:31:46;7.03;;;3.80;;
53145;SDS011;39042;53.150;5.898;2023-11-21T15:34:14;6.43;;;2.63;;
53145;SDS011;39042;53.150;5.898;2023-11-21T15:36:40;4.85;;;2.63;;
53145;SDS011;39042;53.150;5.898;2023-11-21T15:39:06;7.83;;;2.43;;
53145;SDS011;39042;53.150;5.898;2023-11-21T15:41:37;4.60;;;2.30;;
53145;SDS011;39042;53.150;5.898;2023-11-21T15:44:05;5.15;;;2.05;;
53145;SDS011;39042;53.150;5.898;2023-11-21T15:46:33;3.85;;;2.38;;
53145;SDS011;39042;53.150;5.898;2023-11-21T15:49:01;5.07;;;2.40;;
53145;SDS011;39042;53.150;5.898;2023-11-21T15:51:29;4.95;;;2.45;;
53145;SDS011;39042;53.150;5.898;2023-11-21T15:53:55;4.38;;;2.55;;
53145;SDS011;39042;53.150;5.898;2023-11-21T15:56:21;6.23;;;2.70;;
53145;SDS011;39042;53.150;5.898;2023-11-21T16:01:15;8.18;;;2.70;;
53145;SDS011;39042;53.150;5.898;2023-11-21T16:03:41;7.07;;;2.67;;
53145;SDS011;39042;53.150;5.898;2023-11-21T16:06:11;5.68;;;2.95;;
53145;SDS011;39042;53.150;5.898;2023-11-21T16:08:37;4.53;;;2.73;;
53145;SDS011;39042;53.150;5.898;2023-11-21T16:11:03;4.57;;;3.10;;
53145;SDS011;39042;53.150;5.898;2023-11-21T16:13:29;6.38;;;3.42;;
53145;SDS011;39042;53.150;5.898;2023-11-21T16:15:55;3.77;;;2.83;;
53145;SDS011;39042;53.150;5.898;2023-11-21T16:18:21;7.97;;;3.23;;
53145;SDS011;39042;53.150;5.898;2023-11-21T16:20:46;8.53;;;4.70;;
53145;SDS011;39042;53.150;5.898;2023-11-21T16:23:14;7.40;;;3.22;;
53145;SDS011;39042;53.150;5.898;2023-11-21T16:25:41;6.07;;;3.55;;
53145;SDS011;39042;53.150;5.898;2023-11-21T16:28:07;5.60;;;2.60;;
53145;SDS011;39042;53.150;5.898;2023-11-21T16:30:33;4.18;;;2.35;;
53145;SDS011;39042;53.150;5.898;2023-11-21T16:33:00;5.13;;;3.50;;
53145;SDS011;39042;53.150;5.898;2023-11-21T16:35:28;4.75;;;2.95;;
53145;SDS011;39042;53.150;5.898;2023-11-21T16:37:54;5.57;;;3.30;;
53145;SDS011;39042;53.150;5.898;2023-11-21T16:40:21;7.93;;;3.97;;
53145;SDS011;39042;53.150;5.898;2023-11-21T16:42:47;7.53;;;4.00;;
53145;SDS011;39042;53.150;5.898;2023-11-21T16:45:12;8.45;;;4.40;;
53145;SDS011;39042;53.150;5.898;2023-11-21T16:47:38;7.77;;;4.17;;
53145;SDS011;39042;53.150;5.898;2023-11-21T16:50:07;8.48;;;3.42;;
53145;SDS011;39042;53.150;5.898;2023-11-21T16:52:34;5.57;;;3.22;;
53145;SDS011;39042;53.150;5.898;2023-11-21T16:55:00;6.57;;;3.33;;
53145;SDS011;39042;53.150;5.898;2023-11-21T16:57:26;5.97;;;3.17;;
53145;SDS011;39042;53.150;5.898;2023-11-21T16:59:52;5.40;;;3.47;;
53145;SDS011;39042;53.150;5.898;2023-11-21T17:02:18;6.60;;;3.77;;
53145;SDS011;39042;53.150;5.898;2023-11-21T17:04:44;5.30;;;3.40;;
53145;SDS011;39042;53.150;5.898;2023-11-21T17:07:21;7.00;;;4.35;;
53145;SDS011;39042;53.150;5.898;2023-11-21T17:09:47;5.80;;;3.55;;
53145;SDS011;39042;53.150;5.898;2023-11-21T17:12:13;5.70;;;3.47;;
53145;SDS011;39042;53.150;5.898;2023-11-21T17:14:41;7.60;;;3.38;;
53145;SDS011;39042;53.150;5.898;2023-11-21T17:17:09;5.85;;;3.25;;
53145;SDS011;39042;53.150;5.898;2023-11-21T17:19:36;8.00;;;3.85;;
53145;SDS011;39042;53.150;5.898;2023-11-21T17:24:30;10.50;;;3.90;;
53145;SDS011;39042;53.150;5.898;2023-11-21T17:26:58;6.95;;;4.40;;
53145;SDS011;39042;53.150;5.898;2023-11-21T17:29:24;10.63;;;4.80;;
53145;SDS011;39042;53.150;5.898;2023-11-21T17:31:51;9.32;;;4.82;;
53145;SDS011;39042;53.150;5.898;2023-11-21T17:34:17;6.63;;;4.30;;
53145;SDS011;39042;53.150;5.898;2023-11-21T17:36:45;7.72;;;4.85;;